createdAt,value
2022-10-12T00:00:19.940Z,76.31
2022-10-12T00:02:46.967Z,76.21
2022-10-12T00:05:13.830Z,76.21
2022-10-12T00:07:40.917Z,75.64
2022-10-12T00:10:08.376Z,75.63
2022-10-12T00:12:35.191Z,75.25
2022-10-12T00:15:02.112Z,75.13
2022-10-12T00:17:29.552Z,74.65
2022-10-12T00:19:56.359Z,74.38
2022-10-12T00:22:23.183Z,74.13
2022-10-12T00:24:50.096Z,73.80
2022-10-12T00:27:17.081Z,73.70
2022-10-12T00:29:43.838Z,74.03
2022-10-12T00:32:10.799Z,73.73
2022-10-12T00:34:37.689Z,73.88
2022-10-12T00:37:04.503Z,73.56
2022-10-12T00:39:31.337Z,73.67
2022-10-12T00:41:58.324Z,73.78
2022-10-12T00:44:43.842Z,73.84
2022-10-12T00:47:28.114Z,74.06
2022-10-12T00:50:20.804Z,73.96
2022-10-12T00:53:23.112Z,73.75
2022-10-12T00:55:59.216Z,73.91
2022-10-12T00:58:27.790Z,73.42
2022-10-12T01:00:54.580Z,73.38
2022-10-12T01:03:22.552Z,73.27
2022-10-12T01:05:49.520Z,72.99
2022-10-12T01:08:16.363Z,73.28
2022-10-12T01:10:43.295Z,73.04
2022-10-12T01:13:10.255Z,73.36
2022-10-12T01:15:43.233Z,73.56
2022-10-12T01:18:17.891Z,74.01
2022-10-12T01:21:13.337Z,74.12
2022-10-12T01:23:43.274Z,74.00
2022-10-12T01:26:34.904Z,74.60
2022-10-12T01:29:32.833Z,75.10
2022-10-12T01:32:13.439Z,74.86
2022-10-12T01:34:53.078Z,74.92
2022-10-12T01:37:29.584Z,75.16
2022-10-12T01:40:00.432Z,74.72
2022-10-12T01:42:32.549Z,74.56
2022-10-12T01:45:14.828Z,74.81
2022-10-12T01:47:45.280Z,75.02
2022-10-12T01:50:14.321Z,74.94
2022-10-12T01:52:55.905Z,75.09
2022-10-12T01:55:28.444Z,75.56
2022-10-12T01:58:28.903Z,75.33
2022-10-12T02:01:00.999Z,75.45
2022-10-12T02:03:43.507Z,75.28
2022-10-12T02:06:21.717Z,75.64
2022-10-12T02:09:14.494Z,76.11
2022-10-12T02:11:44.774Z,76.47
2022-10-12T02:14:16.546Z,75.96
2022-10-12T02:16:53.175Z,76.53
2022-10-12T02:19:25.817Z,76.77
2022-10-12T02:21:56.121Z,77.15
2022-10-12T02:24:24.034Z,77.22
2022-10-12T02:26:53.603Z,77.12
2022-10-12T02:29:28.865Z,77.40
2022-10-12T02:32:17.527Z,77.34
2022-10-12T02:35:10.579Z,77.31
2022-10-12T02:37:46.312Z,77.42
2022-10-12T02:40:21.860Z,77.19
2022-10-12T02:43:12.284Z,77.00
2022-10-12T02:45:43.844Z,76.97
2022-10-12T02:48:15.738Z,76.69
2022-10-12T02:50:43.804Z,76.92
2022-10-12T02:53:10.618Z,77.08
2022-10-12T02:55:52.105Z,76.61
2022-10-12T02:58:19.623Z,76.77
2022-10-12T03:00:46.874Z,76.83
2022-10-12T03:03:13.886Z,76.50
2022-10-12T03:05:40.755Z,76.67
2022-10-12T03:08:07.583Z,77.25
2022-10-12T03:10:34.457Z,77.48
2022-10-12T03:13:01.386Z,78.34
2022-10-12T03:15:28.210Z,78.67
2022-10-12T03:17:55.799Z,78.63
2022-10-12T03:20:22.704Z,78.88
2022-10-12T03:22:50.154Z,78.34
2022-10-12T03:25:17.366Z,78.86
2022-10-12T03:27:44.131Z,78.71
2022-10-12T03:30:11.520Z,78.82
2022-10-12T03:32:40.124Z,79.19
2022-10-12T03:35:08.308Z,79.45
2022-10-12T03:37:35.253Z,79.53
2022-10-12T03:40:02.452Z,79.52
2022-10-12T03:42:29.335Z,79.69
2022-10-12T03:44:56.101Z,79.57
2022-10-12T03:47:22.925Z,79.42
2022-10-12T03:49:49.778Z,79.16
2022-10-12T03:52:16.495Z,79.13
2022-10-12T03:54:43.472Z,79.36
2022-10-12T03:57:10.402Z,78.93
2022-10-12T03:59:37.293Z,78.86
2022-10-12T04:02:04.106Z,79.12
2022-10-12T04:04:31.535Z,78.82
2022-10-12T04:06:58.971Z,78.70
2022-10-12T04:09:26.235Z,78.80
2022-10-12T04:11:53.612Z,79.19
2022-10-12T04:14:20.884Z,78.80
2022-10-12T04:16:47.930Z,78.58
2022-10-12T04:19:17.800Z,78.90
2022-10-12T04:21:44.976Z,78.98
2022-10-12T04:24:11.982Z,78.85
2022-10-12T04:26:38.892Z,78.78
2022-10-12T04:29:05.800Z,78.77
2022-10-12T04:31:32.521Z,78.79
2022-10-12T04:33:59.669Z,79.01
2022-10-12T04:36:27.174Z,79.18
2022-10-12T04:38:59.928Z,79.84
2022-10-12T04:41:27.937Z,79.78
2022-10-12T04:43:55.123Z,79.70
2022-10-12T04:46:22.263Z,79.27
2022-10-12T04:48:49.178Z,79.88
2022-10-12T04:51:16.130Z,79.74
2022-10-12T04:53:42.959Z,80.07
2022-10-12T04:56:09.979Z,80.33
2022-10-12T04:58:36.841Z,79.68
2022-10-12T05:01:03.799Z,79.34
2022-10-12T05:03:31.606Z,79.03
2022-10-12T05:05:58.828Z,78.35
2022-10-12T05:08:25.798Z,78.13
2022-10-12T05:10:53.336Z,77.86
2022-10-12T05:13:20.656Z,77.53
2022-10-12T05:15:49.171Z,77.39
2022-10-12T05:18:17.121Z,76.83
2022-10-12T05:20:44.477Z,76.66
2022-10-12T05:23:13.151Z,76.75
2022-10-12T05:25:41.308Z,76.79
2022-10-12T05:28:08.576Z,76.87
2022-10-12T05:30:35.878Z,76.20
2022-10-12T05:33:03.749Z,76.21
2022-10-12T05:35:31.519Z,76.32
2022-10-12T05:37:59.234Z,76.41
2022-10-12T05:40:26.248Z,76.23
2022-10-12T05:42:52.987Z,76.75
2022-10-12T05:45:19.870Z,77.25
2022-10-12T05:47:46.629Z,77.00
2022-10-12T05:50:13.819Z,77.34
2022-10-12T05:52:40.965Z,77.21
2022-10-12T05:55:08.586Z,77.82
2022-10-12T05:57:36.616Z,78.01
2022-10-12T06:00:05.711Z,77.86
2022-10-12T06:02:37.323Z,77.70
2022-10-12T06:05:05.047Z,77.69
2022-10-12T06:07:32.889Z,77.82
2022-10-12T06:10:00.418Z,77.49
2022-10-12T06:12:28.054Z,76.70
2022-10-12T06:14:54.885Z,75.63
2022-10-12T06:17:21.670Z,74.65
2022-10-12T06:19:48.575Z,73.81
2022-10-12T06:22:15.446Z,73.73
2022-10-12T06:24:42.735Z,73.20
2022-10-12T06:27:10.455Z,72.83
2022-10-12T06:29:38.310Z,72.82
2022-10-12T06:32:05.863Z,72.73
2022-10-12T06:34:32.626Z,73.16
2022-10-12T06:37:01.828Z,73.34
2022-10-12T06:39:29.092Z,73.26
2022-10-12T06:41:55.983Z,72.37
2022-10-12T06:44:22.993Z,72.55
2022-10-12T06:46:50.552Z,72.51
2022-10-12T06:49:18.070Z,72.34
2022-10-12T06:51:45.253Z,71.77
2022-10-12T06:54:12.246Z,71.33
2022-10-12T06:56:39.684Z,70.92
2022-10-12T06:59:06.620Z,70.79
2022-10-12T07:01:35.259Z,70.84
2022-10-12T07:04:02.197Z,70.08
2022-10-12T07:06:30.118Z,69.08
2022-10-12T07:08:57.026Z,69.02
2022-10-12T07:11:24.025Z,68.76
2022-10-12T07:13:50.876Z,68.48
2022-10-12T07:16:17.756Z,68.01
2022-10-12T07:18:45.844Z,67.70
2022-10-12T07:21:13.126Z,67.50
2022-10-12T07:23:45.043Z,67.28
2022-10-12T07:26:12.969Z,66.52
2022-10-12T07:28:39.740Z,65.95
2022-10-12T07:31:10.115Z,66.14
2022-10-12T07:33:40.696Z,65.35
2022-10-12T07:36:20.867Z,64.57
2022-10-12T07:38:49.350Z,64.32
2022-10-12T07:41:16.257Z,63.92
2022-10-12T07:43:43.743Z,63.76
2022-10-12T07:46:10.795Z,63.89
2022-10-12T07:48:38.158Z,64.14
2022-10-12T07:51:07.707Z,64.83
2022-10-12T07:53:36.224Z,63.37
2022-10-12T07:56:07.781Z,64.00
2022-10-12T07:58:35.417Z,63.04
2022-10-12T08:01:07.124Z,63.17
2022-10-12T08:03:35.140Z,62.74
2022-10-12T08:06:14.267Z,62.70
2022-10-12T08:08:42.282Z,62.26
2022-10-12T08:11:10.098Z,62.46
2022-10-12T08:13:38.131Z,60.80
2022-10-12T08:16:08.139Z,60.97
2022-10-12T08:18:35.129Z,61.02
2022-10-12T08:21:05.527Z,61.03
2022-10-12T08:23:32.720Z,62.59
2022-10-12T08:26:00.914Z,62.53
2022-10-12T08:28:28.307Z,61.00
2022-10-12T08:30:55.410Z,60.20
2022-10-12T08:33:22.318Z,58.30
2022-10-12T08:35:49.782Z,57.84
2022-10-12T08:38:16.989Z,57.61
2022-10-12T08:40:53.521Z,57.34
2022-10-12T08:43:31.333Z,56.66
2022-10-12T08:46:00.977Z,57.30
2022-10-12T08:48:34.676Z,57.33
2022-10-12T08:51:05.490Z,56.58
2022-10-12T08:54:02.361Z,57.38
2022-10-12T08:56:48.421Z,55.71
2022-10-12T08:59:19.140Z,56.25
2022-10-12T09:01:52.391Z,54.46
2022-10-12T09:04:47.544Z,52.21
2022-10-12T09:07:14.427Z,50.80
2022-10-12T09:10:00.012Z,49.83
2022-10-12T09:13:04.350Z,51.20
2022-10-12T09:15:55.136Z,51.99
2022-10-12T09:18:37.064Z,52.72
2022-10-12T09:21:11.633Z,52.15
2022-10-12T09:23:44.999Z,51.49
2022-10-12T09:26:18.771Z,49.63
2022-10-12T09:28:51.350Z,49.46
2022-10-12T09:31:35.108Z,48.09
2022-10-12T09:34:05.795Z,46.99
2022-10-12T09:36:36.437Z,46.91
2022-10-12T09:39:06.252Z,48.44
2022-10-12T09:41:37.996Z,46.86
2022-10-12T09:44:06.873Z,46.68
2022-10-12T09:46:47.113Z,47.50
2022-10-12T09:49:13.978Z,47.79
2022-10-12T09:51:41.084Z,48.76
2022-10-12T09:54:18.306Z,49.17
2022-10-12T09:56:51.320Z,49.85
2022-10-12T09:59:43.449Z,51.01
2022-10-12T10:02:10.877Z,50.82
2022-10-12T10:04:39.232Z,50.30
2022-10-12T10:07:19.185Z,49.90
2022-10-12T10:09:47.081Z,49.45
2022-10-12T10:12:23.124Z,49.57
2022-10-12T10:14:51.819Z,49.26
2022-10-12T10:17:31.779Z,50.82
2022-10-12T10:20:04.274Z,50.70
2022-10-12T10:22:32.291Z,49.80
2022-10-12T10:25:01.058Z,50.18
2022-10-12T10:27:40.087Z,48.22
2022-10-12T10:30:40.880Z,49.04
2022-10-12T10:33:15.784Z,49.23
2022-10-12T10:35:55.454Z,48.47
2022-10-12T10:38:23.183Z,48.76
2022-10-12T10:40:52.196Z,49.45
2022-10-12T10:43:29.127Z,48.11
2022-10-12T10:46:00.216Z,47.42
2022-10-12T10:48:51.430Z,47.75
2022-10-12T10:51:18.851Z,47.82
2022-10-12T10:53:48.625Z,47.19
2022-10-12T10:56:25.860Z,45.61
2022-10-12T10:59:14.869Z,46.94
2022-10-12T11:02:03.479Z,46.69
2022-10-12T11:04:35.502Z,46.46
2022-10-12T11:07:18.103Z,47.37
2022-10-12T11:09:50.864Z,46.98
2022-10-12T11:12:31.035Z,45.95
2022-10-12T11:15:37.580Z,46.07
2022-10-12T11:18:19.108Z,46.30
2022-10-12T11:20:52.301Z,46.31
2022-10-12T11:23:56.730Z,47.89
2022-10-12T11:26:29.772Z,47.42
2022-10-12T11:28:59.564Z,46.14
2022-10-12T11:31:36.455Z,45.09
2022-10-12T11:34:13.280Z,46.15
2022-10-12T11:36:55.866Z,47.20
2022-10-12T11:39:42.806Z,46.85
2022-10-12T11:42:21.699Z,47.99
2022-10-12T11:44:50.138Z,47.24
2022-10-12T11:47:47.214Z,47.59
2022-10-12T11:50:37.577Z,48.23
2022-10-12T11:53:11.974Z,47.75
2022-10-12T11:55:59.833Z,47.36
2022-10-12T11:58:48.898Z,46.71
2022-10-12T12:01:38.035Z,46.84
2022-10-12T12:04:29.250Z,46.73
2022-10-12T12:06:59.118Z,47.60
2022-10-12T12:09:40.381Z,47.18
2022-10-12T12:12:12.966Z,46.13
2022-10-12T12:14:46.768Z,47.21
2022-10-12T12:17:14.111Z,47.04
2022-10-12T12:19:43.118Z,47.36
2022-10-12T12:22:15.168Z,46.56
2022-10-12T12:25:05.822Z,46.59
2022-10-12T12:27:48.209Z,46.56
2022-10-12T12:30:15.021Z,46.51
2022-10-12T12:32:47.462Z,45.75
2022-10-12T12:35:23.114Z,45.96
2022-10-12T12:38:01.570Z,46.72
2022-10-12T12:40:29.323Z,45.82
2022-10-12T12:43:38.154Z,46.51
2022-10-12T12:46:12.981Z,47.17
2022-10-12T12:48:40.107Z,47.57
2022-10-12T12:51:13.180Z,46.85
2022-10-12T12:53:46.265Z,47.15
2022-10-12T12:56:21.800Z,46.79
2022-10-12T12:59:25.943Z,46.45
2022-10-12T13:02:30.813Z,46.50
2022-10-12T13:05:22.737Z,46.26
2022-10-12T13:08:16.186Z,46.26
2022-10-12T13:11:25.244Z,47.27
2022-10-12T13:13:56.112Z,47.93
2022-10-12T13:17:30.318Z,47.57
2022-10-12T13:19:25.474Z,48.21
2022-10-12T13:21:55.239Z,47.32
2022-10-12T13:24:30.024Z,47.45
2022-10-12T13:27:20.733Z,47.17
2022-10-12T13:30:02.992Z,47.66
2022-10-12T13:32:54.202Z,47.32
2022-10-12T13:35:21.843Z,47.77
2022-10-12T13:38:00.815Z,47.22
2022-10-12T13:40:35.819Z,47.48
2022-10-12T13:43:43.954Z,47.38
2022-10-12T13:46:14.680Z,47.21
2022-10-12T13:48:59.285Z,47.56
2022-10-12T13:51:30.522Z,47.34
2022-10-12T13:53:58.028Z,47.06
2022-10-12T13:56:30.043Z,47.82
2022-10-12T13:59:00.318Z,48.09
2022-10-12T14:01:27.631Z,48.32
2022-10-12T14:04:05.557Z,49.04
2022-10-12T14:06:38.259Z,48.21
2022-10-12T14:09:12.827Z,48.89
2022-10-12T14:11:41.121Z,49.69
2022-10-12T14:14:25.111Z,49.79
2022-10-12T14:16:52.275Z,49.75
2022-10-12T14:19:21.921Z,49.95
2022-10-12T14:21:49.778Z,50.58
2022-10-12T14:24:19.549Z,51.07
2022-10-12T14:26:55.205Z,51.52
2022-10-12T14:29:31.478Z,52.49
2022-10-12T14:32:01.599Z,52.46
2022-10-12T14:34:40.917Z,52.55
2022-10-12T14:37:16.963Z,53.51
2022-10-12T14:39:47.196Z,52.76
2022-10-12T14:42:29.532Z,52.38
2022-10-12T14:44:56.785Z,52.21
2022-10-12T14:47:37.490Z,52.72
2022-10-12T14:50:08.498Z,52.91
2022-10-12T14:52:44.056Z,53.21
2022-10-12T14:55:23.357Z,53.73
2022-10-12T14:57:51.033Z,54.40
2022-10-12T15:00:37.690Z,55.33
2022-10-12T15:03:05.111Z,55.37
2022-10-12T15:05:34.033Z,55.90
2022-10-12T15:08:01.346Z,55.35
2022-10-12T15:10:28.595Z,55.24
2022-10-12T15:12:55.534Z,55.06
2022-10-12T15:15:34.814Z,55.00
2022-10-12T15:18:02.544Z,55.30
2022-10-12T15:20:31.365Z,55.97
2022-10-12T15:22:59.540Z,55.98
2022-10-12T15:25:35.421Z,57.24
2022-10-12T15:28:04.023Z,57.53
2022-10-12T15:30:32.886Z,58.22
2022-10-12T15:32:59.807Z,58.08
2022-10-12T15:35:28.981Z,58.52
2022-10-12T15:37:56.359Z,58.51
2022-10-12T15:40:24.143Z,58.52
2022-10-12T15:42:51.132Z,58.61
2022-10-12T15:45:23.731Z,58.66
2022-10-12T15:47:53.206Z,58.47
2022-10-12T15:50:25.427Z,58.60
2022-10-12T15:52:53.855Z,58.37
2022-10-12T15:55:25.174Z,58.50
2022-10-12T15:57:52.455Z,58.42
2022-10-12T16:00:22.988Z,58.67
2022-10-12T16:02:50.586Z,58.96
2022-10-12T16:05:22.454Z,59.52
2022-10-12T16:07:50.107Z,59.79
2022-10-12T16:10:20.311Z,60.73
2022-10-12T16:12:49.875Z,61.38
2022-10-12T16:15:23.928Z,61.56
2022-10-12T16:17:51.522Z,62.04
2022-10-12T16:20:19.177Z,62.11
2022-10-12T16:22:46.519Z,62.30
2022-10-12T16:25:17.250Z,62.17
2022-10-12T16:27:45.672Z,62.00
2022-10-12T16:30:13.383Z,62.22
2022-10-12T16:32:40.818Z,62.29
2022-10-12T16:35:08.976Z,62.41
2022-10-12T16:37:36.039Z,62.56
2022-10-12T16:40:05.080Z,62.71
2022-10-12T16:42:32.648Z,63.02
2022-10-12T16:44:59.881Z,63.34
2022-10-12T16:47:27.419Z,63.82
2022-10-12T16:49:54.709Z,64.30
2022-10-12T16:52:30.021Z,64.32
2022-10-12T16:54:59.447Z,64.87
2022-10-12T16:57:26.584Z,65.07
2022-10-12T16:59:53.626Z,65.34
2022-10-12T17:02:20.779Z,65.54
2022-10-12T17:04:48.087Z,65.83
2022-10-12T17:07:15.790Z,65.83
2022-10-12T17:09:42.919Z,66.03
2022-10-12T17:12:10.179Z,66.65
2022-10-12T17:14:37.461Z,66.45
2022-10-12T17:17:06.164Z,66.95
2022-10-12T17:19:37.356Z,67.00
2022-10-12T17:22:06.511Z,67.40
2022-10-12T17:24:35.741Z,67.48
2022-10-12T17:27:05.129Z,67.18
2022-10-12T17:29:33.516Z,67.84
2022-10-12T17:32:00.413Z,68.14
2022-10-12T17:34:37.084Z,68.27
2022-10-12T17:37:06.245Z,68.11
2022-10-12T17:39:37.206Z,68.44
2022-10-12T17:42:05.216Z,68.48
2022-10-12T17:44:32.805Z,68.43
2022-10-12T17:46:59.764Z,68.61
2022-10-12T17:49:28.154Z,69.15
2022-10-12T17:51:54.908Z,69.49
2022-10-12T17:54:25.280Z,68.84
2022-10-12T17:56:53.542Z,69.35
2022-10-12T17:59:21.414Z,69.18
2022-10-12T18:01:50.132Z,68.88
2022-10-12T18:04:19.288Z,68.94
2022-10-12T18:06:47.481Z,68.48
2022-10-12T18:09:14.935Z,69.28
2022-10-12T18:11:42.060Z,69.27
2022-10-12T18:14:10.479Z,69.81
2022-10-12T18:16:38.207Z,69.97
2022-10-12T18:19:06.609Z,71.02
2022-10-12T18:21:34.092Z,70.93
2022-10-12T18:24:02.913Z,71.34
2022-10-12T18:26:30.584Z,71.54
2022-10-12T18:29:01.932Z,71.35
2022-10-12T18:31:29.912Z,71.75
2022-10-12T18:33:59.818Z,71.34
2022-10-12T18:36:27.223Z,71.22
2022-10-12T18:38:55.102Z,71.36
2022-10-12T18:41:25.620Z,71.20
2022-10-12T18:44:01.059Z,71.74
2022-10-12T18:46:30.182Z,71.69
2022-10-12T18:48:57.243Z,72.23
2022-10-12T18:51:29.652Z,72.37
2022-10-12T18:53:57.389Z,72.41
2022-10-12T18:56:24.294Z,72.57
2022-10-12T18:58:52.850Z,72.37
2022-10-12T19:01:24.926Z,72.05
2022-10-12T19:03:54.665Z,71.83
2022-10-12T19:06:24.819Z,71.77
2022-10-12T19:08:51.963Z,71.63
2022-10-12T19:11:21.589Z,71.12
2022-10-12T19:13:58.055Z,71.26
2022-10-12T19:16:26.128Z,71.17
2022-10-12T19:19:05.256Z,71.45
2022-10-12T19:21:32.234Z,71.63
2022-10-12T19:24:03.616Z,72.02
2022-10-12T19:26:30.884Z,71.66
2022-10-12T19:28:58.506Z,71.50
2022-10-12T19:31:29.355Z,72.12
2022-10-12T19:33:58.582Z,71.94
2022-10-12T19:36:26.146Z,72.02
2022-10-12T19:38:56.122Z,71.94
2022-10-12T19:41:24.518Z,71.74
2022-10-12T19:43:53.254Z,71.38
2022-10-12T19:46:20.878Z,71.76
2022-10-12T19:48:50.141Z,71.25
2022-10-12T19:51:20.028Z,70.72
2022-10-12T19:53:47.880Z,71.63
2022-10-12T19:56:17.807Z,71.26
2022-10-12T19:58:45.714Z,70.76
2022-10-12T20:01:16.312Z,70.46
2022-10-12T20:03:47.965Z,70.72
2022-10-12T20:06:21.199Z,70.73
2022-10-12T20:08:49.131Z,70.57
2022-10-12T20:11:21.528Z,70.34
2022-10-12T20:13:51.749Z,70.82
2022-10-12T20:16:20.798Z,70.14
2022-10-12T20:18:48.307Z,69.92
2022-10-12T20:21:20.608Z,70.39
2022-10-12T20:23:48.209Z,69.97
2022-10-12T20:26:19.607Z,70.01
2022-10-12T20:28:47.617Z,69.69
2022-10-12T20:31:14.932Z,69.66
2022-10-12T20:33:41.927Z,69.80
2022-10-12T20:36:11.839Z,69.91
2022-10-12T20:38:39.431Z,70.37
2022-10-12T20:41:09.155Z,70.38
2022-10-12T20:43:39.683Z,70.54
2022-10-12T20:46:10.420Z,70.83
2022-10-12T20:48:40.043Z,71.22
2022-10-12T20:51:17.869Z,71.48
2022-10-12T20:53:44.831Z,72.01
2022-10-12T20:56:11.650Z,72.27
2022-10-12T20:58:38.910Z,72.46
2022-10-12T21:01:07.991Z,72.76
2022-10-12T21:03:35.880Z,72.85
2022-10-12T21:06:08.470Z,73.02
2022-10-12T21:08:36.031Z,72.54
2022-10-12T21:11:03.819Z,72.40
2022-10-12T21:13:36.615Z,72.37
2022-10-12T21:16:03.584Z,73.03
2022-10-12T21:18:35.337Z,73.01
2022-10-12T21:21:16.171Z,73.37
2022-10-12T21:23:45.707Z,73.79
2022-10-12T21:26:17.760Z,73.48
2022-10-12T21:28:45.461Z,73.16
2022-10-12T21:31:14.049Z,72.80
2022-10-12T21:33:41.378Z,72.30
2022-10-12T21:36:14.763Z,72.97
2022-10-12T21:38:42.593Z,72.90
2022-10-12T21:41:11.192Z,72.69
2022-10-12T21:43:40.354Z,72.63
2022-10-12T21:46:10.048Z,72.54
2022-10-12T21:48:37.041Z,72.28
2022-10-12T21:51:04.905Z,72.35
2022-10-12T21:53:33.481Z,72.42
2022-10-12T21:56:05.652Z,72.49
2022-10-12T21:58:32.765Z,72.14
2022-10-12T22:01:30.017Z,72.39
2022-10-12T22:03:59.236Z,72.04
2022-10-12T22:06:28.260Z,72.05
2022-10-12T22:09:02.300Z,72.58
2022-10-12T22:11:47.807Z,73.11
2022-10-12T22:14:17.557Z,73.36
2022-10-12T22:16:44.429Z,72.84
2022-10-12T22:19:15.240Z,72.80
2022-10-12T22:21:42.351Z,72.58
2022-10-12T22:24:09.229Z,72.89
2022-10-12T22:26:36.468Z,72.78
2022-10-12T22:29:06.247Z,72.80
2022-10-12T22:31:33.595Z,73.07
2022-10-12T22:34:00.521Z,73.09
2022-10-12T22:36:31.130Z,73.19
2022-10-12T22:38:58.923Z,73.22
2022-10-12T22:41:25.928Z,73.38
2022-10-12T22:43:55.254Z,73.78
2022-10-12T22:46:24.098Z,73.90
2022-10-12T22:48:51.559Z,73.52
2022-10-12T22:51:29.979Z,72.94
2022-10-12T22:53:57.105Z,73.23
2022-10-12T22:56:24.071Z,73.36
2022-10-12T22:58:56.532Z,73.59
2022-10-12T23:01:24.084Z,73.80
2022-10-12T23:03:51.204Z,73.87
2022-10-12T23:06:18.928Z,74.57
2022-10-12T23:08:46.738Z,74.16
2022-10-12T23:11:20.308Z,74.02
2022-10-12T23:13:48.057Z,74.46
2022-10-12T23:16:21.623Z,74.58
2022-10-12T23:18:55.492Z,74.94
2022-10-12T23:21:26.009Z,74.65
2022-10-12T23:23:53.490Z,75.01
2022-10-12T23:26:25.165Z,75.36
2022-10-12T23:28:53.735Z,75.07
2022-10-12T23:31:23.645Z,75.34
2022-10-12T23:34:04.871Z,74.72
2022-10-12T23:36:34.467Z,74.72
2022-10-12T23:39:02.063Z,74.11
2022-10-12T23:41:29.072Z,74.11
2022-10-12T23:43:56.060Z,74.25
2022-10-12T23:46:23.200Z,73.68
2022-10-12T23:48:52.086Z,73.38
2022-10-12T23:51:18.999Z,73.55
2022-10-12T23:53:46.010Z,73.15
2022-10-12T23:56:31.316Z,73.30
2022-10-12T23:59:01.837Z,72.59
